Time;durP1;ratioP1;P1;durP2;ratioP2;P2;SDS_P1;SDS_P2;PMS_P1;PMS_P2;Temp;Humidity;BMP_temperature;BMP_pressure;BME280_temperature;BME280_humidity;BME280_pressure;Samples;Min_cycle;Max_cycle;Signal;HPM_P1;HPM_P2
2023/09/27 00:00:14;;;;;;;17.47;15.67;;;19.20;99.90;;;;;;5036260;28;20236;-66
2023/09/27 00:02:41;;;;;;;15.87;14.17;;;19.20;99.90;;;;;;5035965;28;20315;-66
2023/09/27 00:05:08;;;;;;;17.27;14.97;;;19.20;99.90;;;;;;5032018;28;20198;-66
2023/09/27 00:07:36;;;;;;;15.67;13.93;;;19.10;99.90;;;;;;5032156;28;20208;-67
2023/09/27 00:10:09;;;;;;;18.23;15.10;;;19.10;99.90;;;;;;5032283;28;20218;-67
2023/09/27 00:12:35;;;;;;;18.23;14.53;;;19.10;99.90;;;;;;5032074;28;20226;-64
2023/09/27 00:15:01;;;;;;;17.67;14.10;;;19.00;99.90;;;;;;5036897;28;20206;-64
2023/09/27 00:17:28;;;;;;;18.67;14.63;;;19.00;99.90;;;;;;5033815;28;20219;-64
2023/09/27 00:19:54;;;;;;;16.93;15.13;;;19.00;99.90;;;;;;5033786;28;20201;-64
2023/09/27 00:22:19;;;;;;;15.50;13.97;;;18.90;99.90;;;;;;5038618;28;20202;-66
2023/09/27 00:24:45;;;;;;;17.90;14.80;;;18.90;99.90;;;;;;5033384;28;20209;-65
2023/09/27 00:27:11;;;;;;;18.80;16.10;;;18.90;99.90;;;;;;5035544;28;20718;-64
2023/09/27 00:29:36;;;;;;;16.33;14.27;;;18.90;99.90;;;;;;5036692;28;20670;-64
2023/09/27 00:32:02;;;;;;;21.67;13.50;;;18.80;99.90;;;;;;5028329;28;20211;-65
2023/09/27 00:34:28;;;;;;;17.47;15.67;;;18.80;99.90;;;;;;5034783;28;20266;-63
2023/09/27 00:36:53;;;;;;;19.93;15.60;;;18.80;99.90;;;;;;5034190;28;20849;-64
2023/09/27 00:39:19;;;;;;;16.40;14.57;;;18.80;99.90;;;;;;5031960;28;20208;-64
2023/09/27 00:41:44;;;;;;;19.60;15.63;;;18.70;99.90;;;;;;5035175;28;20235;-64
2023/09/27 00:44:10;;;;;;;15.97;14.43;;;18.70;99.90;;;;;;5033496;28;20212;-64
2023/09/27 00:46:36;;;;;;;17.47;15.70;;;18.60;99.90;;;;;;5036026;28;20255;-65
2023/09/27 00:49:01;;;;;;;15.77;13.63;;;18.70;99.90;;;;;;5032675;28;20848;-65
2023/09/27 00:51:27;;;;;;;17.90;15.97;;;18.60;99.90;;;;;;5034193;28;20232;-66
2023/09/27 00:53:54;;;;;;;15.97;14.37;;;18.60;99.90;;;;;;5039305;28;20220;-64
2023/09/27 00:56:20;;;;;;;15.90;14.23;;;18.60;99.90;;;;;;5039213;28;20211;-65
2023/09/27 00:58:47;;;;;;;17.77;15.93;;;18.50;99.90;;;;;;5035186;28;20212;-65
2023/09/27 01:01:13;;;;;;;15.70;14.17;;;18.50;99.90;;;;;;5038600;28;20210;-64
2023/09/27 01:03:39;;;;;;;18.07;14.77;;;18.50;99.90;;;;;;5040737;28;20206;-65
2023/09/27 01:06:05;;;;;;;20.97;15.77;;;18.40;99.90;;;;;;5036017;28;20201;-64
2023/09/27 01:08:31;;;;;;;17.27;15.13;;;18.40;99.90;;;;;;5040842;28;20205;-64
2023/09/27 01:10:56;;;;;;;19.67;15.57;;;18.40;99.90;;;;;;5034927;28;20190;-64
2023/09/27 01:13:22;;;;;;;17.00;14.30;;;18.40;99.90;;;;;;5034924;28;20226;-61
2023/09/27 01:15:48;;;;;;;17.63;14.60;;;18.30;99.90;;;;;;5033580;28;20830;-61
2023/09/27 01:18:14;;;;;;;18.77;16.60;;;18.30;99.90;;;;;;5036439;28;20202;-61
2023/09/27 01:20:39;;;;;;;16.93;15.20;;;18.20;99.90;;;;;;5036437;28;20201;-61
2023/09/27 01:23:06;;;;;;;19.53;16.40;;;18.20;99.90;;;;;;5038979;28;20622;-65
2023/09/27 01:25:34;;;;;;;17.80;14.83;;;18.20;99.90;;;;;;5032899;28;20205;-65
2023/09/27 01:28:09;;;;;;;17.60;15.70;;;18.10;99.90;;;;;;5034617;28;20591;-65
2023/09/27 01:30:36;;;;;;;17.67;15.93;;;18.10;99.90;;;;;;5033244;28;20754;-65
2023/09/27 01:33:08;;;;;;;17.23;15.40;;;18.10;99.90;;;;;;5033268;28;20260;-64
2023/09/27 01:35:37;;;;;;;17.93;15.50;;;18.10;99.90;;;;;;5035677;28;20205;-65
2023/09/27 01:38:04;;;;;;;17.90;16.07;;;18.10;99.90;;;;;;5036246;28;20630;-64
2023/09/27 01:40:30;;;;;;;16.50;14.30;;;18.10;99.90;;;;;;5033845;28;20236;-65
2023/09/27 01:43:00;;;;;;;17.40;14.93;;;18.00;99.90;;;;;;5039551;28;20284;-61
2023/09/27 01:45:29;;;;;;;17.83;15.17;;;18.00;99.90;;;;;;5034425;28;20232;-61
2023/09/27 01:47:55;;;;;;;16.53;14.80;;;17.90;99.90;;;;;;5042977;28;20287;-61
2023/09/27 01:50:23;;;;;;;16.50;14.27;;;17.90;99.90;;;;;;5039987;28;20213;-61
2023/09/27 01:52:52;;;;;;;18.47;15.93;;;17.90;99.90;;;;;;5038983;28;20213;-61
2023/09/27 01:55:18;;;;;;;20.30;14.67;;;17.90;99.90;;;;;;5042625;28;20816;-61
2023/09/27 01:57:45;;;;;;;16.10;14.23;;;17.90;99.90;;;;;;5040818;28;20227;-61
2023/09/27 02:00:14;;;;;;;20.13;15.87;;;17.90;99.90;;;;;;5038268;28;20246;-62
2023/09/27 02:02:41;;;;;;;19.60;15.97;;;17.80;99.90;;;;;;5033286;28;20283;-61
2023/09/27 02:05:07;;;;;;;16.93;15.23;;;17.70;99.90;;;;;;5037511;28;20204;-61
2023/09/27 02:07:33;;;;;;;17.77;15.40;;;17.70;99.90;;;;;;5033301;28;20206;-61
2023/09/27 02:09:58;;;;;;;18.00;16.20;;;17.80;99.90;;;;;;5039185;28;20205;-61
2023/09/27 02:12:23;;;;;;;18.80;16.60;;;17.80;99.90;;;;;;5036391;28;20252;-60
2023/09/27 02:14:49;;;;;;;16.93;15.13;;;17.80;99.90;;;;;;5036690;28;20556;-60
2023/09/27 02:17:14;;;;;;;17.53;14.47;;;17.70;99.90;;;;;;5033460;28;20205;-66
2023/09/27 02:19:40;;;;;;;18.03;16.17;;;17.60;99.90;;;;;;5035881;28;20233;-65
2023/09/27 02:22:06;;;;;;;17.67;15.60;;;17.50;99.90;;;;;;5037640;28;20207;-65
2023/09/27 02:24:32;;;;;;;19.07;15.43;;;17.50;99.90;;;;;;5041114;28;20358;-66
2023/09/27 02:26:57;;;;;;;17.70;15.90;;;17.50;99.90;;;;;;5031415;28;20302;-66
2023/09/27 02:29:23;;;;;;;19.90;16.77;;;17.50;99.90;;;;;;5033794;28;20204;-66
2023/09/27 02:31:48;;;;;;;24.07;18.53;;;17.50;99.90;;;;;;5037078;28;20285;-66
2023/09/27 02:34:14;;;;;;;28.90;19.70;;;17.50;99.90;;;;;;5035305;28;20774;-66
2023/09/27 02:36:41;;;;;;;24.90;18.80;;;17.40;99.90;;;;;;5037993;28;20222;-65
2023/09/27 02:39:07;;;;;;;18.60;16.27;;;17.30;99.90;;;;;;5039359;28;20490;-65
2023/09/27 02:41:32;;;;;;;18.47;16.57;;;17.40;99.90;;;;;;5033473;28;20303;-65
2023/09/27 02:43:58;;;;;;;19.33;15.97;;;17.40;99.90;;;;;;5030600;28;20306;-65
2023/09/27 02:46:23;;;;;;;22.03;16.13;;;17.40;99.90;;;;;;5033297;28;20264;-63
2023/09/27 02:48:49;;;;;;;18.33;16.43;;;17.40;99.90;;;;;;5033653;28;20236;-62
2023/09/27 02:51:18;;;;;;;20.27;16.07;;;17.40;99.90;;;;;;5031445;28;20597;-62
2023/09/27 02:53:44;;;;;;;17.40;15.60;;;17.40;99.90;;;;;;5035962;28;20221;-67
2023/09/27 02:56:11;;;;;;;18.80;16.80;;;17.30;99.90;;;;;;5034893;28;20208;-65
2023/09/27 02:58:37;;;;;;;18.93;15.97;;;17.20;99.90;;;;;;5033547;28;20209;-62
2023/09/27 03:01:02;;;;;;;18.97;16.87;;;17.20;99.90;;;;;;5039386;28;20706;-63
2023/09/27 03:03:30;;;;;;;20.43;16.87;;;17.20;99.90;;;;;;5037417;28;20332;-62
2023/09/27 03:05:57;;;;;;;20.37;16.57;;;17.30;99.90;;;;;;5034772;28;21045;-66
2023/09/27 03:08:23;;;;;;;19.33;16.47;;;17.30;99.90;;;;;;5031336;28;20207;-69
2023/09/27 03:10:49;;;;;;;20.10;16.37;;;17.30;99.90;;;;;;5036710;28;20261;-68
2023/09/27 03:13:15;;;;;;;19.57;16.83;;;17.30;99.90;;;;;;5036633;28;20248;-68
2023/09/27 03:15:41;;;;;;;19.63;16.97;;;17.30;99.90;;;;;;5036592;28;20198;-66
2023/09/27 03:18:09;;;;;;;17.93;16.13;;;17.30;99.90;;;;;;5030381;28;20243;-66
2023/09/27 03:20:36;;;;;;;23.10;17.57;;;17.30;99.90;;;;;;5034409;28;20615;-68
2023/09/27 03:23:01;;;;;;;22.50;18.43;;;17.30;99.90;;;;;;5031229;28;20562;-69
2023/09/27 03:25:27;;;;;;;17.50;15.77;;;17.30;99.90;;;;;;5032635;28;20220;-64
2023/09/27 03:27:52;;;;;;;20.50;16.57;;;17.20;99.90;;;;;;5032413;28;20300;-64
2023/09/27 03:30:18;;;;;;;19.30;16.00;;;17.20;99.90;;;;;;5032364;28;20848;-65
2023/09/27 03:32:44;;;;;;;18.57;16.70;;;17.10;99.90;;;;;;5036097;28;20566;-64
2023/09/27 03:35:09;;;;;;;20.33;17.60;;;17.00;99.90;;;;;;5038521;28;20608;-64
2023/09/27 03:37:35;;;;;;;19.27;16.80;;;17.10;99.90;;;;;;5038586;28;20740;-63
2023/09/27 03:40:03;;;;;;;19.47;17.27;;;17.10;99.90;;;;;;5033168;28;20197;-63
2023/09/27 03:42:29;;;;;;;19.07;16.80;;;17.20;99.90;;;;;;5036642;28;20225;-63
2023/09/27 03:44:55;;;;;;;19.27;16.40;;;17.10;99.90;;;;;;5036094;28;20558;-63
2023/09/27 03:47:20;;;;;;;18.93;16.63;;;17.10;99.90;;;;;;5035371;28;20252;-65
2023/09/27 03:49:46;;;;;;;19.87;16.17;;;17.10;99.90;;;;;;5037463;28;20205;-64
2023/09/27 03:52:12;;;;;;;20.33;18.23;;;17.10;99.90;;;;;;5040550;28;20209;-64
2023/09/27 03:54:37;;;;;;;20.70;16.50;;;17.00;99.90;;;;;;5040508;28;20223;-64
2023/09/27 03:57:03;;;;;;;21.47;16.57;;;17.10;99.90;;;;;;5033978;28;20224;-64
2023/09/27 03:59:29;;;;;;;20.47;18.20;;;17.00;99.90;;;;;;5037914;28;20288;-65
2023/09/27 04:01:55;;;;;;;23.03;18.47;;;17.00;99.90;;;;;;5032643;28;20824;-66
2023/09/27 04:04:21;;;;;;;20.47;17.30;;;17.10;99.90;;;;;;5032368;28;20213;-66
2023/09/27 04:06:46;;;;;;;21.37;18.33;;;17.10;99.90;;;;;;5038693;28;20500;-65
2023/09/27 04:09:12;;;;;;;20.60;18.50;;;17.10;99.90;;;;;;5034992;28;20202;-66
2023/09/27 04:11:38;;;;;;;22.60;18.43;;;17.10;99.90;;;;;;5031829;28;20195;-64
2023/09/27 04:14:04;;;;;;;22.87;18.80;;;17.00;99.90;;;;;;5035008;28;20660;-65
2023/09/27 04:16:30;;;;;;;24.03;19.30;;;17.00;99.90;;;;;;5036999;28;20237;-64
2023/09/27 04:18:57;;;;;;;21.67;18.33;;;17.00;99.90;;;;;;5031958;28;20669;-64
2023/09/27 04:21:23;;;;;;;20.60;17.73;;;17.00;99.90;;;;;;5032051;28;20203;-65
2023/09/27 04:23:55;;;;;;;20.13;16.83;;;16.90;99.90;;;;;;5037713;28;20281;-65
2023/09/27 04:26:23;;;;;;;20.07;18.07;;;16.90;99.90;;;;;;5033472;28;20210;-65
2023/09/27 04:28:49;;;;;;;22.57;17.77;;;16.90;99.90;;;;;;5033559;28;20257;-65
2023/09/27 04:31:15;;;;;;;19.80;17.60;;;16.90;99.90;;;;;;5031410;28;20204;-66
2023/09/27 04:33:44;;;;;;;21.30;18.07;;;16.90;99.90;;;;;;5031780;28;20689;-64
2023/09/27 04:36:15;;;;;;;21.10;18.00;;;16.90;99.90;;;;;;5035783;28;20223;-66
2023/09/27 04:38:46;;;;;;;19.53;16.30;;;16.90;99.90;;;;;;5031815;28;20352;-66
2023/09/27 04:41:14;;;;;;;21.07;17.47;;;16.90;99.90;;;;;;5030351;28;20200;-66
2023/09/27 04:43:41;;;;;;;21.67;18.63;;;16.90;99.90;;;;;;5028866;28;20204;-66
2023/09/27 04:46:06;;;;;;;20.27;18.17;;;16.90;99.90;;;;;;5035253;28;20229;-65
2023/09/27 04:48:32;;;;;;;18.20;16.27;;;16.90;99.90;;;;;;5034962;28;20243;-66
2023/09/27 04:50:59;;;;;;;19.27;17.23;;;16.90;99.90;;;;;;5030212;28;20207;-66
2023/09/27 04:53:25;;;;;;;20.20;18.00;;;16.90;99.90;;;;;;5035709;28;20586;-66
2023/09/27 04:55:52;;;;;;;18.80;16.13;;;17.00;99.90;;;;;;5036680;28;20209;-65
2023/09/27 04:58:17;;;;;;;20.73;18.53;;;16.90;99.90;;;;;;5032199;28;20212;-65
2023/09/27 05:00:43;;;;;;;21.10;17.87;;;16.90;99.90;;;;;;5035064;28;20577;-63
2023/09/27 05:03:08;;;;;;;18.57;16.63;;;16.90;99.90;;;;;;5039465;28;20207;-65
2023/09/27 05:05:33;;;;;;;19.33;16.43;;;16.90;99.90;;;;;;5036268;28;20630;-65
2023/09/27 05:07:59;;;;;;;20.13;17.33;;;16.90;99.90;;;;;;5036750;28;20201;-65
2023/09/27 05:10:25;;;;;;;18.27;16.33;;;16.90;99.90;;;;;;5034861;28;20760;-65
2023/09/27 05:12:51;;;;;;;19.67;17.47;;;17.00;99.90;;;;;;5048635;28;20231;-65
2023/09/27 05:15:16;;;;;;;18.93;16.93;;;16.90;99.90;;;;;;5048830;28;20201;-65
2023/09/27 05:17:42;;;;;;;17.97;15.27;;;16.90;99.90;;;;;;5048607;28;20204;-65
2023/09/27 05:20:10;;;;;;;18.83;16.97;;;16.90;99.90;;;;;;5053434;28;20767;-65
2023/09/27 05:22:37;;;;;;;18.60;16.20;;;16.90;99.90;;;;;;5042065;28;20580;-65
2023/09/27 05:25:05;;;;;;;20.03;16.27;;;16.90;99.90;;;;;;5056511;28;20208;-65
2023/09/27 05:27:30;;;;;;;18.80;16.70;;;16.80;99.90;;;;;;5039912;28;20830;-66
2023/09/27 05:29:57;;;;;;;19.37;16.07;;;16.80;99.90;;;;;;5047711;28;20277;-65
2023/09/27 05:32:23;;;;;;;23.33;20.73;;;16.80;99.90;;;;;;5041161;28;20193;-65
2023/09/27 05:34:49;;;;;;;18.67;16.77;;;16.80;99.90;;;;;;5058818;28;20213;-66
2023/09/27 05:37:15;;;;;;;21.70;17.20;;;16.70;99.90;;;;;;5059575;28;20191;-67
2023/09/27 05:39:40;;;;;;;20.27;17.83;;;16.80;99.90;;;;;;5052555;28;20204;-67
2023/09/27 05:42:06;;;;;;;18.83;16.60;;;16.80;99.90;;;;;;5045667;28;20187;-68
2023/09/27 05:44:31;;;;;;;19.00;16.67;;;16.70;99.90;;;;;;5051489;28;20596;-67
2023/09/27 05:46:57;;;;;;;21.70;18.80;;;16.70;99.90;;;;;;5040915;28;20186;-68
2023/09/27 05:49:22;;;;;;;20.23;18.10;;;16.70;99.90;;;;;;5053989;28;20205;-67
2023/09/27 05:51:48;;;;;;;18.73;16.83;;;16.80;99.90;;;;;;5042853;28;20191;-65
2023/09/27 05:54:13;;;;;;;19.23;17.23;;;16.80;99.90;;;;;;5054511;28;20282;-65
2023/09/27 05:56:39;;;;;;;18.87;16.87;;;16.80;99.90;;;;;;5047738;28;20591;-65
2023/09/27 05:59:08;;;;;;;23.20;16.93;;;16.80;99.90;;;;;;5042123;28;20274;-65
2023/09/27 06:01:35;;;;;;;17.13;15.43;;;16.70;99.90;;;;;;5024780;28;20179;-65
2023/09/27 06:04:01;;;;;;;17.37;15.57;;;16.70;99.90;;;;;;5056249;28;20201;-63
2023/09/27 06:06:26;;;;;;;19.20;16.43;;;16.80;99.90;;;;;;5042483;28;20225;-63
2023/09/27 06:08:52;;;;;;;19.73;16.53;;;16.80;99.90;;;;;;5060307;28;20199;-63
2023/09/27 06:11:17;;;;;;;19.40;17.40;;;16.80;99.90;;;;;;5042716;28;20820;-64
2023/09/27 06:13:44;;;;;;;22.80;18.63;;;16.90;99.90;;;;;;5036671;28;20250;-65
2023/09/27 06:16:19;;;;;;;19.13;17.00;;;16.90;99.90;;;;;;5044690;28;20273;-63
2023/09/27 06:18:45;;;;;;;19.53;16.77;;;17.00;99.90;;;;;;5036735;28;20195;-61
2023/09/27 06:21:11;;;;;;;19.10;17.23;;;17.00;99.90;;;;;;5035970;28;20206;-62
2023/09/27 06:23:37;;;;;;;19.60;15.93;;;17.10;99.90;;;;;;5036046;28;20200;-69
2023/09/27 06:26:03;;;;;;;19.93;16.33;;;17.20;99.90;;;;;;5034640;28;20263;-67
2023/09/27 06:28:28;;;;;;;17.80;16.17;;;17.20;99.90;;;;;;5034003;28;20200;-64
2023/09/27 06:30:54;;;;;;;19.27;17.20;;;17.20;99.90;;;;;;5037709;28;20245;-64
2023/09/27 06:33:19;;;;;;;18.70;16.87;;;17.20;99.90;;;;;;5042244;28;20726;-63
2023/09/27 06:35:45;;;;;;;19.67;17.77;;;17.20;99.90;;;;;;5033397;28;20204;-63
2023/09/27 06:38:11;;;;;;;19.53;17.53;;;17.20;99.90;;;;;;5039093;28;20195;-67
2023/09/27 06:40:37;;;;;;;18.40;16.50;;;17.30;99.90;;;;;;5044665;28;20199;-63
2023/09/27 06:43:04;;;;;;;20.07;17.33;;;17.40;99.90;;;;;;5035572;28;20670;-63
2023/09/27 06:45:30;;;;;;;21.23;18.30;;;17.50;99.90;;;;;;5030870;28;20207;-62
2023/09/27 06:47:56;;;;;;;22.27;18.07;;;17.60;99.90;;;;;;5032860;28;20200;-64
2023/09/27 06:50:22;;;;;;;19.70;16.83;;;17.60;99.90;;;;;;5032530;28;20222;-66
2023/09/27 06:52:48;;;;;;;18.83;16.90;;;17.70;99.90;;;;;;5033188;28;20228;-64
2023/09/27 06:55:16;;;;;;;20.80;18.43;;;17.60;99.90;;;;;;5036856;28;20194;-64
2023/09/27 06:57:47;;;;;;;19.07;17.07;;;17.60;99.90;;;;;;5038390;28;20227;-62
2023/09/27 07:00:18;;;;;;;18.83;16.87;;;17.70;99.90;;;;;;5030290;28;20253;-63
2023/09/27 07:02:47;;;;;;;19.47;16.53;;;17.70;99.90;;;;;;5034741;28;20295;-63
2023/09/27 07:05:13;;;;;;;20.50;18.33;;;17.70;99.90;;;;;;5031697;28;20205;-62
2023/09/27 07:07:39;;;;;;;23.23;17.93;;;17.70;99.90;;;;;;5036770;28;20942;-63
2023/09/27 07:10:06;;;;;;;20.23;17.07;;;17.80;99.90;;;;;;5031329;28;20226;-64
2023/09/27 07:12:33;;;;;;;21.97;17.23;;;17.80;99.90;;;;;;5031260;28;20230;-64
2023/09/27 07:14:58;;;;;;;21.00;17.87;;;18.00;99.90;;;;;;5032545;28;20738;-63
2023/09/27 07:17:27;;;;;;;21.77;18.13;;;18.00;99.90;;;;;;5041088;28;20290;-63
2023/09/27 07:19:53;;;;;;;20.37;18.43;;;18.10;99.90;;;;;;5032145;28;20665;-65
2023/09/27 07:22:19;;;;;;;19.33;17.17;;;18.20;99.90;;;;;;5033526;28;20209;-64
2023/09/27 07:24:45;;;;;;;20.27;18.17;;;18.30;99.90;;;;;;5032820;28;20208;-63
2023/09/27 07:27:11;;;;;;;21.17;18.20;;;18.40;99.90;;;;;;5032594;28;20263;-64
2023/09/27 07:29:37;;;;;;;19.87;17.87;;;18.40;99.90;;;;;;5031175;28;20254;-62
2023/09/27 07:32:04;;;;;;;20.93;18.67;;;18.40;99.90;;;;;;5032876;28;20202;-65
2023/09/27 07:34:30;;;;;;;19.60;17.80;;;18.60;99.90;;;;;;5036539;28;20212;-63
2023/09/27 07:36:56;;;;;;;19.07;17.07;;;18.60;99.90;;;;;;5039616;28;20230;-63
2023/09/27 07:39:22;;;;;;;20.87;16.87;;;18.60;99.90;;;;;;5037077;28;20245;-63
2023/09/27 07:41:49;;;;;;;22.30;19.90;;;18.60;99.90;;;;;;5033134;28;20212;-62
2023/09/27 07:44:15;;;;;;;21.47;18.33;;;18.70;99.90;;;;;;5031122;28;20234;-65
2023/09/27 07:46:41;;;;;;;18.37;16.57;;;18.80;99.90;;;;;;5038185;28;20295;-62
2023/09/27 07:49:06;;;;;;;19.63;17.70;;;18.90;99.90;;;;;;5037327;28;20507;-62
2023/09/27 07:51:33;;;;;;;20.23;18.00;;;18.90;99.90;;;;;;5037824;28;20300;-62
2023/09/27 07:53:59;;;;;;;19.47;17.30;;;18.90;99.90;;;;;;5039167;28;20209;-62
2023/09/27 07:56:26;;;;;;;20.63;17.97;;;19.00;99.90;;;;;;5036842;28;20204;-63
2023/09/27 07:58:53;;;;;;;21.17;18.97;;;19.00;99.90;;;;;;5033870;28;20317;-62
2023/09/27 08:01:23;;;;;;;20.60;17.33;;;19.10;99.90;;;;;;5039830;28;20212;-63
2023/09/27 08:03:51;;;;;;;23.43;18.37;;;19.20;99.90;;;;;;5036493;28;20467;-63
2023/09/27 08:06:17;;;;;;;22.93;18.33;;;19.30;99.90;;;;;;5034546;28;20248;-63
2023/09/27 08:08:43;;;;;;;19.83;17.67;;;19.30;99.90;;;;;;5036670;28;20214;-65
2023/09/27 08:11:11;;;;;;;19.73;17.60;;;19.40;99.90;;;;;;5039420;28;20312;-63
2023/09/27 08:13:37;;;;;;;19.07;16.70;;;19.40;99.90;;;;;;5029747;28;20241;-63
2023/09/27 08:16:06;;;;;;;20.83;16.63;;;19.60;99.90;;;;;;5030632;28;20210;-62
2023/09/27 08:18:33;;;;;;;20.33;17.17;;;19.50;99.90;;;;;;5031848;28;20213;-64
2023/09/27 08:20:59;;;;;;;19.77;17.10;;;19.70;99.90;;;;;;5030957;28;20693;-63
2023/09/27 08:23:24;;;;;;;22.07;16.27;;;19.80;99.90;;;;;;5033751;28;20209;-61
2023/09/27 08:25:52;;;;;;;18.90;16.97;;;19.90;99.90;;;;;;5032177;28;20420;-63
2023/09/27 08:28:17;;;;;;;18.47;15.67;;;20.00;99.90;;;;;;5032056;28;20203;-65
2023/09/27 08:30:43;;;;;;;18.17;16.20;;;19.90;99.90;;;;;;5036554;28;20583;-66
2023/09/27 08:33:09;;;;;;;26.07;16.63;;;20.00;99.90;;;;;;5038663;28;20298;-66
2023/09/27 08:35:34;;;;;;;18.27;16.37;;;20.00;99.90;;;;;;5036042;28;20754;-64
2023/09/27 08:37:59;;;;;;;16.43;14.90;;;20.10;99.90;;;;;;5034011;28;20213;-68
2023/09/27 08:40:25;;;;;;;17.13;14.97;;;20.20;99.90;;;;;;5033871;28;20214;-70
2023/09/27 08:43:00;;;;;;;16.80;13.53;;;20.20;99.90;;;;;;5033962;28;20712;-69
2023/09/27 08:45:26;;;;;;;15.87;14.27;;;20.50;99.90;;;;;;5026756;28;20584;-62
2023/09/27 08:47:54;;;;;;;17.23;15.13;;;20.60;99.90;;;;;;5032100;28;20207;-63
2023/09/27 08:50:19;;;;;;;16.23;14.47;;;20.60;99.90;;;;;;5037793;28;20202;-63
2023/09/27 08:52:47;;;;;;;20.23;14.40;;;20.70;99.90;;;;;;5033771;28;20217;-63
2023/09/27 08:55:13;;;;;;;18.87;14.33;;;20.70;99.90;;;;;;5035906;28;20340;-64
2023/09/27 08:57:46;;;;;;;20.90;15.67;;;20.60;99.90;;;;;;5034905;28;20601;-64
2023/09/27 09:00:19;;;;;;;15.80;14.13;;;20.70;99.90;;;;;;5035242;28;20198;-63
2023/09/27 09:02:48;;;;;;;14.47;12.97;;;20.70;99.90;;;;;;5036391;28;20672;-62
2023/09/27 09:05:16;;;;;;;17.47;12.77;;;20.80;99.90;;;;;;5036561;28;20198;-62
2023/09/27 09:07:42;;;;;;;16.33;12.77;;;20.80;99.90;;;;;;5037452;28;20210;-64
2023/09/27 09:10:13;;;;;;;18.60;13.73;;;20.90;99.90;;;;;;5033370;28;20967;-62
2023/09/27 09:12:40;;;;;;;14.93;11.50;;;21.00;99.90;;;;;;5034825;28;20311;-63
2023/09/27 09:15:06;;;;;;;16.50;11.63;;;21.20;99.90;;;;;;5035919;28;20202;-63
2023/09/27 09:17:34;;;;;;;17.17;12.87;;;21.20;99.90;;;;;;5039193;28;20683;-64
2023/09/27 09:20:17;;;;;;;16.17;12.90;;;21.30;99.90;;;;;;5038483;28;20248;-65
2023/09/27 09:22:46;;;;;;;16.40;12.93;;;21.30;99.90;;;;;;5043902;28;20768;-65
2023/09/27 09:25:12;;;;;;;17.03;12.60;;;21.40;99.90;;;;;;5035267;28;20279;-62
2023/09/27 09:27:38;;;;;;;13.07;11.80;;;21.50;99.90;;;;;;5036878;28;20527;-64
2023/09/27 09:30:07;;;;;;;17.03;12.30;;;21.40;99.90;;;;;;5036610;28;20278;-65
2023/09/27 09:32:33;;;;;;;13.97;12.53;;;21.50;99.90;;;;;;5043167;28;20556;-63
2023/09/27 09:34:59;;;;;;;15.93;12.40;;;21.50;99.90;;;;;;5037343;28;20317;-64
2023/09/27 09:37:28;;;;;;;14.80;12.03;;;21.60;99.90;;;;;;5038710;28;20256;-66
2023/09/27 09:40:15;;;;;;;14.00;11.47;;;21.60;99.90;;;;;;5037799;28;20203;-63
2023/09/27 09:42:42;;;;;;;11.80;10.60;;;21.70;99.90;;;;;;5031412;28;20198;-63
2023/09/27 09:45:12;;;;;;;11.30;10.30;;;21.70;99.90;;;;;;5032225;28;20226;-63
2023/09/27 09:47:46;;;;;;;16.47;10.23;;;21.60;99.90;;;;;;5036722;28;20195;-64
2023/09/27 09:50:19;;;;;;;11.80;10.33;;;21.90;99.90;;;;;;5040621;28;20273;-63
2023/09/27 09:52:57;;;;;;;10.43;9.37;;;22.00;99.90;;;;;;5032559;28;20339;-64
2023/09/27 09:55:25;;;;;;;13.03;9.57;;;22.20;99.90;;;;;;5037094;28;20201;-64
2023/09/27 09:58:17;;;;;;;17.23;9.77;;;22.20;99.90;;;;;;5038052;28;20198;-64
2023/09/27 10:00:49;;;;;;;11.13;9.23;;;22.20;99.90;;;;;;5036549;28;20838;-65
2023/09/27 10:03:20;;;;;;;9.93;7.30;;;22.20;99.90;;;;;;5034738;28;20199;-63
2023/09/27 10:05:49;;;;;;;8.93;7.73;;;22.30;99.90;;;;;;5030576;28;20681;-64
2023/09/27 10:08:17;;;;;;;8.97;8.17;;;22.40;99.90;;;;;;5034945;28;20746;-64
2023/09/27 10:10:43;;;;;;;9.00;7.15;;;22.60;99.90;;;;;;5033250;28;20267;-64
2023/09/27 10:13:10;;;;;;;12.60;7.83;;;22.70;99.90;;;;;;5036350;28;20227;-63
2023/09/27 10:15:37;;;;;;;9.97;7.57;;;22.90;99.90;;;;;;5036203;28;20237;-64
2023/09/27 10:18:21;;;;;;;11.67;7.07;;;22.90;99.90;;;;;;5036745;28;20205;-63
2023/09/27 10:21:05;;;;;;;9.07;7.10;;;22.90;99.90;;;;;;5035221;28;20869;-63
2023/09/27 10:23:45;;;;;;;8.68;6.38;;;22.90;99.90;;;;;;5038175;28;21098;-63
2023/09/27 10:26:22;;;;;;;7.10;6.13;;;23.00;99.90;;;;;;5031288;28;20285;-63
2023/09/27 10:29:03;;;;;;;11.23;6.40;;;23.10;99.90;;;;;;5044289;28;20206;-64
2023/09/27 10:31:36;;;;;;;8.02;6.78;;;23.20;99.90;;;;;;5038573;28;20199;-64
2023/09/27 10:34:01;;;;;;;8.37;7.30;;;23.20;99.90;;;;;;5033647;28;20648;-62
2023/09/27 10:36:29;;;;;;;8.70;6.88;;;23.30;99.90;;;;;;5036861;28;20310;-63
2023/09/27 10:38:54;;;;;;;7.95;7.15;;;23.50;99.90;;;;;;5037648;28;21022;-63
2023/09/27 10:41:32;;;;;;;7.05;6.43;;;23.70;99.90;;;;;;5039919;28;20865;-63
2023/09/27 10:44:02;;;;;;;7.45;6.30;;;24.00;99.90;;;;;;5032100;28;20188;-63
2023/09/27 10:46:45;;;;;;;8.68;7.18;;;24.10;99.90;;;;;;5040701;28;20258;-63
2023/09/27 10:49:11;;;;;;;9.93;7.15;;;24.40;99.90;;;;;;5034598;28;20217;-62
2023/09/27 10:51:37;;;;;;;7.20;6.22;;;24.80;99.90;;;;;;5039300;28;20311;-63
2023/09/27 10:54:09;;;;;;;7.45;6.70;;;25.10;99.90;;;;;;5035990;28;20301;-63
2023/09/27 10:56:35;;;;;;;6.25;5.75;;;25.30;99.90;;;;;;5037726;28;20617;-63
2023/09/27 10:59:02;;;;;;;10.00;6.28;;;25.40;99.90;;;;;;5036318;28;20215;-63
2023/09/27 11:01:28;;;;;;;8.13;7.05;;;25.50;99.90;;;;;;5038361;28;20669;-63
2023/09/27 11:04:01;;;;;;;7.65;5.68;;;25.80;99.90;;;;;;5040334;28;20202;-63
2023/09/27 11:06:28;;;;;;;8.07;6.78;;;25.90;99.90;;;;;;5032867;28;20208;-63
2023/09/27 11:09:08;;;;;;;10.48;5.80;;;26.00;99.90;;;;;;5041505;28;20203;-63
2023/09/27 11:11:34;;;;;;;7.28;5.40;;;26.30;99.90;;;;;;5039651;28;20258;-63
2023/09/27 11:14:00;;;;;;;7.60;5.15;;;26.50;99.90;;;;;;5028895;28;20216;-63
2023/09/27 11:16:25;;;;;;;6.93;6.32;;;26.10;99.90;;;;;;5034000;28;20678;-63
2023/09/27 11:18:57;;;;;;;9.02;5.85;;;26.50;99.90;;;;;;5033825;28;20733;-64
2023/09/27 11:21:25;;;;;;;10.27;5.35;;;26.10;99.90;;;;;;5033900;28;20198;-64
2023/09/27 11:24:03;;;;;;;12.02;5.53;;;25.90;99.90;;;;;;5039111;28;20780;-64
2023/09/27 11:26:31;;;;;;;5.70;4.18;;;26.20;99.90;;;;;;5030456;28;20248;-64
2023/09/27 11:29:04;;;;;;;5.65;5.15;;;26.30;99.00;;;;;;5036818;28;21109;-63
2023/09/27 11:31:36;;;;;;;5.32;4.50;;;26.40;98.80;;;;;;5033486;28;20198;-63
2023/09/27 11:34:13;;;;;;;8.05;5.57;;;26.70;98.50;;;;;;5034006;28;20669;-62
2023/09/27 11:36:46;;;;;;;6.13;5.53;;;27.10;97.80;;;;;;5034871;28;20198;-64
2023/09/27 11:39:16;;;;;;;5.07;4.32;;;27.30;96.80;;;;;;5035059;28;20195;-62
2023/09/27 11:41:46;;;;;;;5.38;4.63;;;27.60;95.50;;;;;;5037555;28;20547;-63
2023/09/27 11:44:29;;;;;;;6.03;4.72;;;27.70;94.90;;;;;;5032632;28;20206;-63
2023/09/27 11:47:06;;;;;;;5.30;4.88;;;28.00;93.80;;;;;;5030818;28;20298;-63
2023/09/27 11:49:32;;;;;;;5.25;4.38;;;28.20;93.70;;;;;;5035534;28;21012;-63
2023/09/27 11:51:58;;;;;;;7.03;4.85;;;28.10;94.20;;;;;;5032338;28;20206;-63
2023/09/27 11:54:25;;;;;;;5.28;4.55;;;28.30;92.70;;;;;;5035852;28;20211;-64
2023/09/27 11:56:50;;;;;;;4.60;4.20;;;28.20;92.40;;;;;;5041009;28;20677;-64
2023/09/27 11:59:16;;;;;;;5.25;3.85;;;28.00;93.30;;;;;;5038595;28;20273;-64
2023/09/27 12:01:41;;;;;;;5.25;4.40;;;27.70;94.00;;;;;;5030761;28;20935;-64
2023/09/27 12:04:07;;;;;;;5.70;4.22;;;27.80;94.10;;;;;;5038577;28;20226;-63
2023/09/27 12:06:33;;;;;;;5.57;4.68;;;28.30;93.50;;;;;;5036939;28;20213;-63
2023/09/27 12:08:59;;;;;;;5.38;4.40;;;28.60;92.20;;;;;;5031751;28;20321;-63
2023/09/27 12:11:25;;;;;;;5.63;4.28;;;28.30;93.00;;;;;;5034387;28;20300;-63
2023/09/27 12:13:53;;;;;;;7.32;4.78;;;28.10;93.90;;;;;;5041495;28;20333;-64
2023/09/27 12:16:22;;;;;;;5.03;4.25;;;27.80;94.30;;;;;;5037065;28;20206;-64
2023/09/27 12:18:48;;;;;;;4.85;4.35;;;28.20;93.00;;;;;;5032003;28;20260;-66
2023/09/27 12:21:14;;;;;;;5.82;4.80;;;28.90;92.30;;;;;;5032214;28;20206;-64
2023/09/27 12:23:40;;;;;;;4.22;3.75;;;29.70;90.10;;;;;;5034982;28;20736;-65
2023/09/27 12:26:06;;;;;;;4.50;4.10;;;29.80;88.80;;;;;;5031645;28;20210;-68
2023/09/27 12:28:36;;;;;;;9.15;4.20;;;29.60;87.70;;;;;;5031425;28;20205;-63
2023/09/27 12:31:05;;;;;;;5.60;4.50;;;29.50;89.90;;;;;;5031210;28;20738;-63